Time;durP1;ratioP1;P1;durP2;ratioP2;P2;SDS_P1;SDS_P2;PMS_P1;PMS_P2;Temp;Humidity;BMP_temperature;BMP_pressure;BME280_temperature;BME280_humidity;BME280_pressure;Samples;Min_cycle;Max_cycle;Signal;HPM_P1;HPM_P2
2022/08/01 00:01:35;;;;;;;15.35;13.77;;;;;;;19.04;100.00;101584.91;5069010;28;20025;-65
2022/08/01 00:04:01;;;;;;;15.82;14.10;;;;;;;19.05;100.00;101577.91;5068597;28;20035;-66
2022/08/01 00:06:27;;;;;;;15.15;13.82;;;;;;;19.06;100.00;101582.28;5053990;28;20109;-65
2022/08/01 00:08:52;;;;;;;15.80;13.82;;;;;;;19.05;100.00;101586.66;5068661;28;20472;-65
2022/08/01 00:11:17;;;;;;;15.77;14.15;;;;;;;19.04;100.00;101584.00;5068513;28;20028;-65
2022/08/01 00:13:43;;;;;;;17.05;14.13;;;;;;;19.03;100.00;101579.63;5068650;28;20491;-65
2022/08/01 00:16:08;;;;;;;16.48;14.75;;;;;;;19.03;100.00;101583.13;5068907;28;20048;-65
2022/08/01 00:18:35;;;;;;;16.23;14.63;;;;;;;19.04;100.00;101584.00;5068461;28;20373;-65
2022/08/01 00:21:00;;;;;;;15.70;14.25;;;;;;;19.05;100.00;101578.75;5068114;28;20029;-65
2022/08/01 00:23:26;;;;;;;15.95;14.40;;;;;;;19.01;100.00;101584.00;5068540;28;20020;-65
2022/08/01 00:25:51;;;;;;;16.95;15.02;;;;;;;19.00;100.00;101582.22;5068769;28;20112;-65
2022/08/01 00:28:16;;;;;;;16.88;15.20;;;;;;;18.99;100.00;101576.09;5067544;28;20052;-66
2022/08/01 00:30:41;;;;;;;16.73;15.05;;;;;;;18.99;100.00;101585.72;5068321;28;20115;-65
2022/08/01 00:33:07;;;;;;;15.63;14.18;;;;;;;18.99;100.00;101578.72;5068944;28;20032;-65
2022/08/01 00:35:32;;;;;;;17.73;15.57;;;;;;;19.01;100.00;101584.88;5068139;28;20095;-66
2022/08/01 00:37:57;;;;;;;16.42;14.77;;;;;;;19.02;100.00;101585.75;5067405;28;20107;-65
2022/08/01 00:40:23;;;;;;;17.33;15.55;;;;;;;19.03;100.00;101584.88;5068061;28;20028;-65
2022/08/01 00:42:48;;;;;;;18.65;15.95;;;;;;;19.00;100.00;101587.47;5068165;28;20017;-65
2022/08/01 00:45:13;;;;;;;17.17;15.18;;;;;;;19.00;100.00;101587.47;5068151;28;20085;-65
2022/08/01 00:47:39;;;;;;;18.42;15.90;;;;;;;18.99;100.00;101591.84;5067831;28;20020;-65
2022/08/01 00:50:05;;;;;;;20.35;17.95;;;;;;;19.00;100.00;101587.47;5067872;28;20020;-65
2022/08/01 00:52:31;;;;;;;19.13;17.23;;;;;;;18.99;100.00;101585.72;5067170;28;20033;-65
2022/08/01 00:54:56;;;;;;;19.13;16.60;;;;;;;18.99;100.00;101593.59;5067946;28;20028;-65
2022/08/01 00:57:22;;;;;;;18.50;16.55;;;;;;;18.99;100.00;101590.97;5067797;28;20113;-65
2022/08/01 00:59:47;;;;;;;22.15;18.42;;;;;;;19.01;100.00;101591.88;5067833;28;20029;-65
2022/08/01 01:02:13;;;;;;;19.08;16.98;;;;;;;19.01;100.00;101591.88;5067573;28;20017;-65
2022/08/01 01:04:38;;;;;;;18.83;16.88;;;;;;;19.02;100.00;101591.00;5064352;28;20084;-65
2022/08/01 01:07:13;;;;;;;19.08;17.08;;;;;;;19.04;100.00;101597.13;5057023;28;20531;-65
2022/08/01 01:10:06;;;;;;;21.05;18.02;;;;;;;19.06;100.00;101593.69;5062635;28;20028;-65
2022/08/01 01:12:42;;;;;;;20.23;18.13;;;;;;;19.06;100.00;101600.66;5059875;28;20070;-65
2022/08/01 01:15:49;;;;;;;21.15;18.95;;;;;;;19.05;100.00;101605.03;5066955;28;20032;-65
2022/08/01 01:18:22;;;;;;;22.38;19.20;;;;;;;19.03;100.00;101603.28;5024514;28;20033;-65
2022/08/01 01:20:56;;;;;;;22.45;19.85;;;;;;;19.02;100.00;101591.00;5024367;28;20147;-65
2022/08/01 01:23:27;;;;;;;20.77;18.50;;;;;;;19.00;100.00;101597.97;5041303;28;20468;-65
2022/08/01 01:26:23;;;;;;;18.02;16.13;;;;;;;18.98;100.00;101597.97;5067248;28;20039;-65
2022/08/01 01:29:00;;;;;;;17.45;15.75;;;;;;;18.95;100.00;101590.06;5066874;28;20129;-65
2022/08/01 01:31:28;;;;;;;17.45;15.65;;;;;;;18.94;100.00;101590.94;5067220;28;20044;-65
2022/08/01 01:33:57;;;;;;;17.67;15.80;;;;;;;18.91;100.00;101599.66;5055303;28;20020;-65
2022/08/01 01:36:26;;;;;;;18.38;15.73;;;;;;;18.87;100.00;101589.97;5066762;28;20037;-64
2022/08/01 01:38:53;;;;;;;16.67;14.93;;;;;;;18.83;100.00;101585.59;5067134;28;20099;-65
2022/08/01 01:41:20;;;;;;;17.35;15.27;;;;;;;18.82;100.00;101583.81;5067209;28;20074;-65
2022/08/01 01:43:47;;;;;;;17.45;15.60;;;;;;;18.80;100.00;101601.28;5067582;28;20013;-65
2022/08/01 01:46:16;;;;;;;15.90;14.35;;;;;;;18.78;100.00;101593.41;5067257;28;20112;-65
2022/08/01 01:48:44;;;;;;;16.25;14.60;;;;;;;18.78;100.00;101587.28;5066150;28;20082;-64
2022/08/01 01:51:11;;;;;;;16.20;14.52;;;;;;;18.74;100.00;101591.63;5066052;28;20021;-65
2022/08/01 01:53:38;;;;;;;17.92;13.77;;;;;;;18.70;100.00;101593.34;5066052;28;20070;-65
2022/08/01 01:56:03;;;;;;;15.00;13.43;;;;;;;18.68;100.00;101592.44;5052418;28;20032;-65
2022/08/01 01:58:32;;;;;;;15.80;14.15;;;;;;;18.68;100.00;101587.19;5067009;28;20032;-65
2022/08/01 02:01:01;;;;;;;15.57;13.93;;;;;;;18.67;100.00;101584.56;5067322;28;20013;-65
2022/08/01 02:03:28;;;;;;;17.83;15.25;;;;;;;18.68;100.00;101594.19;5067093;28;20035;-65
2022/08/01 02:05:55;;;;;;;16.25;14.55;;;;;;;18.66;100.00;101588.03;5053000;28;20040;-65
2022/08/01 02:08:23;;;;;;;17.33;13.68;;;;;;;18.64;100.00;101580.16;5066799;28;20141;-64
2022/08/01 02:13:38;;;;;;;16.27;14.35;;;;;;;18.62;100.00;101586.25;5054251;28;20601;-65
2022/08/01 02:16:05;;;;;;;19.40;14.25;;;;;;;18.60;100.00;101586.25;5066899;28;20434;-65
2022/08/01 02:18:31;;;;;;;14.85;13.25;;;;;;;18.59;100.00;101580.13;5066722;28;20044;-65
2022/08/01 02:20:58;;;;;;;15.10;13.55;;;;;;;18.56;100.00;101581.81;5066637;28;20035;-65
2022/08/01 02:23:32;;;;;;;14.32;12.82;;;;;;;18.53;100.00;101587.91;5066975;28;20042;-65
2022/08/01 02:26:00;;;;;;;16.67;13.93;;;;;;;18.51;100.00;101583.53;5066666;28;20035;-64
2022/08/01 02:28:30;;;;;;;14.30;12.90;;;;;;;18.52;100.00;101593.16;5066268;28;20051;-65
2022/08/01 02:31:01;;;;;;;14.73;13.25;;;;;;;18.52;100.00;101587.91;5066817;28;20425;-65
2022/08/01 02:33:38;;;;;;;14.90;13.30;;;;;;;18.52;100.00;101591.41;5066761;28;20504;-65
2022/08/01 02:36:05;;;;;;;15.80;14.20;;;;;;;18.47;100.00;101578.22;5066902;28;20028;-65
2022/08/01 02:38:33;;;;;;;16.75;14.75;;;;;;;18.50;100.00;101589.63;5066566;28;20024;-65
2022/08/01 02:41:05;;;;;;;17.23;14.27;;;;;;;18.52;100.00;101590.53;5066282;28;20092;-64
2022/08/01 02:43:33;;;;;;;15.63;13.25;;;;;;;18.53;100.00;101592.31;5066489;28;20021;-65
2022/08/01 02:46:02;;;;;;;17.27;14.77;;;;;;;18.49;100.00;101596.63;5065747;28;20025;-65
2022/08/01 02:48:32;;;;;;;16.27;14.57;;;;;;;18.48;100.00;101595.75;5067052;28;20487;-65
2022/08/01 02:50:59;;;;;;;16.45;14.60;;;;;;;18.48;100.00;101587.88;5066558;28;20563;-65
2022/08/01 02:53:30;;;;;;;17.80;15.93;;;;;;;18.48;100.00;101586.97;5065407;28;20461;-65
2022/08/01 02:55:57;;;;;;;16.30;14.70;;;;;;;18.50;100.00;101581.75;5066386;28;20024;-64
2022/08/01 02:58:24;;;;;;;16.35;14.65;;;;;;;18.50;100.00;101593.13;5066366;28;20036;-65
2022/08/01 03:00:50;;;;;;;16.00;14.50;;;;;;;18.50;100.00;101593.13;5065729;28;20025;-65
2022/08/01 03:03:16;;;;;;;15.57;14.07;;;;;;;18.48;100.00;101594.84;5066418;28;20515;-64
2022/08/01 03:05:44;;;;;;;16.85;15.05;;;;;;;18.47;100.00;101582.63;5054358;28;20454;-65
2022/08/01 03:08:11;;;;;;;16.15;14.35;;;;;;;18.46;100.00;101581.72;5067220;28;20179;-65
2022/08/01 03:10:39;;;;;;;16.50;14.57;;;;;;;18.43;100.00;101586.94;5070046;28;20553;-65
2022/08/01 03:13:07;;;;;;;17.65;14.07;;;;;;;18.43;100.00;101592.19;5069614;28;20028;-65
2022/08/01 03:15:37;;;;;;;17.08;14.02;;;;;;;18.42;100.00;101593.03;5069456;28;20683;-65
2022/08/01 03:18:05;;;;;;;16.20;13.95;;;;;;;18.41;100.00;101588.66;5069582;28;20036;-65
2022/08/01 03:20:32;;;;;;;15.90;14.00;;;;;;;18.38;100.00;101591.25;5069328;28;20033;-65
2022/08/01 03:23:01;;;;;;;23.40;15.30;;;;;;;18.36;100.00;101591.25;5069038;28;20031;-65
2022/08/01 03:25:28;;;;;;;16.25;14.07;;;;;;;18.35;100.00;101591.19;5069997;28;20024;-65
2022/08/01 03:27:56;;;;;;;16.42;14.45;;;;;;;18.36;100.00;101595.59;5069645;28;20031;-64
2022/08/01 03:30:26;;;;;;;15.90;13.48;;;;;;;18.40;100.00;101593.91;5069616;28;20037;-65
2022/08/01 03:32:52;;;;;;;13.30;11.80;;;;;;;18.42;100.00;101595.66;5069266;28;20112;-65
2022/08/01 03:35:18;;;;;;;14.40;12.32;;;;;;;18.45;100.00;101595.72;5069479;28;20107;-65
2022/08/01 03:37:46;;;;;;;14.40;12.95;;;;;;;18.49;100.00;101591.38;5069247;28;20021;-66
2022/08/01 03:40:15;;;;;;;17.42;14.40;;;;;;;18.50;100.00;101602.75;5069693;28;20033;-65
2022/08/01 03:42:49;;;;;;;17.10;13.23;;;;;;;18.50;100.00;101602.75;5069514;28;20029;-64
2022/08/01 03:45:27;;;;;;;15.85;13.82;;;;;;;18.51;100.00;101600.13;5069406;28;20286;-65
2022/08/01 03:47:58;;;;;;;14.85;12.80;;;;;;;18.50;100.00;101598.38;5069136;28;20051;-65
2022/08/01 03:50:24;;;;;;;18.45;14.15;;;;;;;18.47;100.00;101593.09;5069734;28;20108;-65
2022/08/01 03:52:51;;;;;;;17.10;13.77;;;;;;;18.45;100.00;101606.22;5069028;28;20012;-65
2022/08/01 03:55:17;;;;;;;15.68;13.63;;;;;;;18.42;100.00;101600.03;5068298;28;20170;-64
2022/08/01 03:57:45;;;;;;;16.58;13.50;;;;;;;18.40;100.00;101596.53;5068764;28;20025;-65
2022/08/01 04:00:10;;;;;;;16.88;13.55;;;;;;;18.37;100.00;101602.59;5068003;28;20115;-65
2022/08/01 04:02:37;;;;;;;16.27;13.98;;;;;;;18.37;100.00;101602.59;5066187;28;20107;-64
2022/08/01 04:05:03;;;;;;;17.17;15.13;;;;;;;18.35;100.00;101602.59;5060613;28;20142;-65
2022/08/01 04:07:32;;;;;;;16.23;14.55;;;;;;;18.33;100.00;101608.69;5060775;28;20089;-65
2022/08/01 04:09:58;;;;;;;19.88;15.27;;;;;;;18.32;100.00;101606.91;5069260;28;20052;-65
2022/08/01 04:12:24;;;;;;;17.55;14.60;;;;;;;18.30;100.00;101595.53;5069787;28;20020;-65
2022/08/01 04:14:49;;;;;;;16.25;14.50;;;;;;;18.30;100.00;101611.25;5068681;28;20027;-66
2022/08/01 04:17:18;;;;;;;17.98;15.30;;;;;;;18.26;100.00;101609.47;5069298;28;20548;-65
2022/08/01 04:19:43;;;;;;;18.45;15.75;;;;;;;18.21;100.00;101607.66;5069469;28;20054;-65
2022/08/01 04:22:11;;;;;;;17.17;15.38;;;;;;;18.22;100.00;101614.66;5069053;28;20056;-65
2022/08/01 04:24:37;;;;;;;17.15;14.93;;;;;;;18.23;100.00;101620.81;5069212;28;20111;-64
2022/08/01 04:27:05;;;;;;;17.45;15.13;;;;;;;18.22;100.00;101625.16;5069420;28;20099;-65
2022/08/01 04:29:32;;;;;;;17.02;14.77;;;;;;;18.24;100.00;101627.81;5068941;28;20051;-65
2022/08/01 04:32:00;;;;;;;19.35;14.48;;;;;;;18.23;100.00;101611.19;5068704;28;20032;-65
2022/08/01 04:34:28;;;;;;;17.83;14.05;;;;;;;18.23;100.00;101619.06;5068839;28;20060;-65
2022/08/01 04:36:55;;;;;;;19.83;14.98;;;;;;;18.23;100.00;101624.31;5068982;28;20035;-65
2022/08/01 04:39:27;;;;;;;16.52;14.20;;;;;;;18.24;100.00;101623.44;5068615;28;20024;-65
2022/08/01 04:41:57;;;;;;;17.92;15.75;;;;;;;18.28;100.00;101623.47;5069050;28;20472;-65
2022/08/01 04:44:24;;;;;;;18.48;14.73;;;;;;;18.30;100.00;101627.00;5068568;28;20031;-64
2022/08/01 04:46:51;;;;;;;18.95;13.88;;;;;;;18.32;100.00;101620.91;5068174;28;20036;-65
2022/08/01 04:49:16;;;;;;;15.73;14.13;;;;;;;18.35;100.00;101623.56;5068700;28;20024;-65
2022/08/01 04:51:57;;;;;;;15.68;13.82;;;;;;;18.35;100.00;101625.31;5068359;28;20028;-64
2022/08/01 04:54:36;;;;;;;18.50;13.25;;;;;;;18.38;100.00;101624.47;5067886;28;20282;-65
2022/08/01 04:57:03;;;;;;;17.60;14.18;;;;;;;18.41;100.00;101637.63;5068089;28;20028;-65
2022/08/01 04:59:40;;;;;;;15.88;13.55;;;;;;;18.46;100.00;101636.81;5068201;28;20051;-65
2022/08/01 05:02:17;;;;;;;15.60;13.43;;;;;;;18.54;100.00;101638.66;5068893;28;20079;-66
2022/08/01 05:04:44;;;;;;;15.32;13.38;;;;;;;18.57;100.00;101646.56;5064707;28;20059;-66
2022/08/01 05:07:10;;;;;;;16.35;13.75;;;;;;;18.62;100.00;101650.09;5058079;28;20420;-66
2022/08/01 05:09:36;;;;;;;16.73;14.73;;;;;;;18.64;100.00;101651.00;5068415;28;20109;-66
2022/08/01 05:12:03;;;;;;;17.35;14.00;;;;;;;18.65;100.00;101642.28;5067858;28;20511;-66
2022/08/01 05:14:31;;;;;;;16.50;14.00;;;;;;;18.68;100.00;101649.31;5067684;28;20620;-65
2022/08/01 05:17:02;;;;;;;17.23;13.65;;;;;;;18.72;100.00;101661.59;5068084;28;20127;-66
2022/08/01 05:19:29;;;;;;;15.40;13.90;;;;;;;18.72;100.00;101659.88;5067956;28;20388;-66
2022/08/01 05:21:54;;;;;;;16.75;15.00;;;;;;;18.74;100.00;101652.00;5068079;28;20024;-66
2022/08/01 05:24:19;;;;;;;17.13;13.77;;;;;;;18.75;100.00;101656.38;5068104;28;20021;-66
2022/08/01 05:26:45;;;;;;;15.30;12.48;;;;;;;18.76;100.00;101662.53;5067960;28;20035;-66
2022/08/01 05:29:10;;;;;;;16.80;13.95;;;;;;;18.76;100.00;101658.16;5066623;28;20090;-65
2022/08/01 05:31:35;;;;;;;15.15;13.32;;;;;;;18.77;100.00;101659.91;5067612;28;20488;-65
2022/08/01 05:34:02;;;;;;;15.98;12.70;;;;;;;18.79;100.00;101657.28;5059311;28;20115;-65
2022/08/01 05:36:28;;;;;;;17.67;13.38;;;;;;;18.76;100.00;101657.28;5047908;28;20028;-65
2022/08/01 05:38:53;;;;;;;14.13;12.65;;;;;;;18.75;100.00;101660.75;5045953;28;20020;-65
2022/08/01 05:41:18;;;;;;;16.10;13.48;;;;;;;18.76;100.00;101662.53;5045341;28;20548;-64
2022/08/01 05:43:43;;;;;;;14.57;12.40;;;;;;;18.79;100.00;101662.53;5046590;28;20074;-64
2022/08/01 05:46:09;;;;;;;15.80;13.52;;;;;;;18.82;100.00;101654.69;5048350;28;20102;-65
2022/08/01 05:48:34;;;;;;;16.73;12.05;;;;;;;18.88;100.00;101653.88;5046612;28;20021;-64
2022/08/01 05:50:59;;;;;;;14.68;12.15;;;;;;;18.91;100.00;101652.16;5045253;28;20025;-65
2022/08/01 05:53:25;;;;;;;13.18;11.98;;;;;;;18.94;100.00;101652.19;5045365;28;20025;-64
2022/08/01 05:55:50;;;;;;;13.05;10.45;;;;;;;18.95;100.00;101656.59;5045805;28;20538;-64
2022/08/01 05:58:16;;;;;;;15.18;11.82;;;;;;;19.01;100.00;101654.91;5045311;28;20033;-66
2022/08/01 06:00:41;;;;;;;11.70;10.55;;;;;;;19.05;100.00;101659.31;5045867;28;20392;-65
2022/08/01 06:03:06;;;;;;;11.23;10.02;;;;;;;19.08;100.00;101659.34;5044149;28;20055;-65
2022/08/01 06:05:32;;;;;;;12.13;10.63;;;;;;;19.11;100.00;101666.34;5044370;28;20056;-64
2022/08/01 06:07:57;;;;;;;12.23;10.93;;;;;;;19.11;100.00;101667.25;5046220;28;20100;-65
2022/08/01 06:10:23;;;;;;;10.75;9.65;;;;;;;19.13;100.00;101668.19;5053991;28;20044;-65
2022/08/01 06:12:48;;;;;;;10.65;9.45;;;;;;;19.14;100.00;101664.66;5046157;28;20025;-64
2022/08/01 06:15:13;;;;;;;10.48;9.38;;;;;;;19.19;100.00;101673.47;5050695;28;20091;-65
2022/08/01 06:17:39;;;;;;;10.90;9.63;;;;;;;19.25;100.00;101666.53;5051362;28;20040;-65
2022/08/01 06:20:06;;;;;;;11.27;10.18;;;;;;;19.27;100.00;101665.66;5050994;28;20108;-65
2022/08/01 06:22:31;;;;;;;10.77;9.40;;;;;;;19.27;100.00;101670.91;5049604;28;20476;-65
2022/08/01 06:24:57;;;;;;;10.43;9.23;;;;;;;19.30;100.00;101672.72;5050669;28;20025;-65
2022/08/01 06:27:24;;;;;;;8.43;7.53;;;;;;;19.31;100.00;101667.47;5047021;28;20392;-65
2022/08/01 06:29:53;;;;;;;6.82;5.85;;;;;;;19.31;100.00;101677.97;5052347;28;20053;-65
2022/08/01 06:32:18;;;;;;;6.30;5.70;;;;;;;19.30;100.00;101675.34;5049769;28;20021;-65
2022/08/01 06:34:43;;;;;;;5.78;5.20;;;;;;;19.27;100.00;101677.91;5054052;28;20031;-65
2022/08/01 06:37:08;;;;;;;4.88;4.38;;;;;;;19.24;100.00;101683.16;5047281;28;20041;-65
2022/08/01 06:39:34;;;;;;;6.32;4.53;;;;;;;19.25;100.00;101687.56;5053914;28;20051;-65
2022/08/01 06:41:59;;;;;;;4.60;4.10;;;;;;;19.29;100.00;101684.06;5048736;28;20055;-65
2022/08/01 06:44:24;;;;;;;4.40;3.70;;;;;;;19.34;100.00;101686.75;5056840;28;20501;-65
2022/08/01 06:46:50;;;;;;;4.68;4.28;;;;;;;19.40;100.00;101689.41;5048753;28;20029;-65
2022/08/01 06:49:15;;;;;;;4.32;3.92;;;;;;;19.44;100.00;101689.47;5056680;28;20063;-66
2022/08/01 06:51:40;;;;;;;6.88;4.97;;;;;;;19.48;100.00;101685.09;5053550;28;20469;-64
2022/08/01 06:54:05;;;;;;;5.65;4.20;;;;;;;19.53;100.00;101693.03;5049699;28;20112;-64
2022/08/01 06:56:31;;;;;;;4.93;4.40;;;;;;;19.55;100.00;101691.31;5049293;28;20029;-65
2022/08/01 06:59:00;;;;;;;5.05;4.50;;;;;;;19.57;100.00;101694.84;5048368;28;20349;-65
2022/08/01 07:01:26;;;;;;;4.85;4.38;;;;;;;19.61;100.00;101693.97;5048234;28;20063;-65
2022/08/01 07:03:52;;;;;;;4.95;3.80;;;;;;;19.66;100.00;101694.03;5049531;28;20025;-65
2022/08/01 07:06:17;;;;;;;5.70;4.00;;;;;;;19.79;100.00;101694.97;5049163;28;20024;-65
2022/08/01 07:08:43;;;;;;;5.90;4.13;;;;;;;19.94;100.00;101698.56;5051405;28;20017;-65
2022/08/01 07:11:08;;;;;;;3.75;3.20;;;;;;;20.03;100.00;101696.91;5049917;28;20029;-65
2022/08/01 07:13:33;;;;;;;4.72;3.47;;;;;;;20.10;100.00;101695.22;5048926;28;20163;-64
2022/08/01 07:15:59;;;;;;;4.47;3.55;;;;;;;20.19;100.00;101693.47;5048642;28;20119;-65
2022/08/01 07:18:24;;;;;;;3.83;3.35;;;;;;;20.26;100.00;101687.38;5049580;28;20020;-65
2022/08/01 07:20:49;;;;;;;4.35;3.28;;;;;;;20.34;100.00;101692.69;5058788;28;20125;-65
2022/08/01 07:23:15;;;;;;;5.32;3.15;;;;;;;20.43;100.00;101697.13;5047210;28;20024;-64
2022/08/01 07:25:41;;;;;;;3.55;3.25;;;;;;;20.66;100.00;101683.16;5047851;28;20562;-65
2022/08/01 07:28:06;;;;;;;4.20;2.97;;;;;;;20.98;100.00;101692.91;5047527;28;20150;-64
2022/08/01 07:30:32;;;;;;;3.80;3.33;;;;;;;21.29;100.00;101695.59;5047368;28;20363;-66
2022/08/01 07:32:57;;;;;;;3.13;2.83;;;;;;;21.63;100.00;101699.09;5047214;28;20025;-65
2022/08/01 07:35:23;;;;;;;4.72;3.03;;;;;;;21.98;100.00;101695.59;5049220;28;20498;-65
2022/08/01 07:37:48;;;;;;;3.55;2.67;;;;;;;22.29;100.00;101705.16;5049107;28;20259;-65
2022/08/01 07:40:14;;;;;;;3.30;2.03;;;;;;;22.44;95.53;101693.66;5060604;28;20253;-65
2022/08/01 07:42:43;;;;;;;2.17;2.03;;;;;;;22.42;93.24;101698.94;5047147;28;20017;-66
2022/08/01 07:45:09;;;;;;;3.72;2.28;;;;;;;22.39;94.47;101706.00;5047411;28;20515;-65
2022/08/01 07:47:34;;;;;;;5.70;2.00;;;;;;;22.28;93.31;101704.28;5046900;28;20231;-65
2022/08/01 07:50:01;;;;;;;4.57;1.75;;;;;;;22.16;92.77;101709.59;5047197;28;20110;-65
2022/08/01 07:52:26;;;;;;;5.55;1.83;;;;;;;22.10;94.80;101701.69;5046445;28;20025;-65
2022/08/01 07:54:52;;;;;;;3.10;1.95;;;;;;;22.09;96.34;101713.16;5051924;28;20028;-65
2022/08/01 07:57:17;;;;;;;1.90;1.20;;;;;;;22.03;93.65;101714.91;5051161;28;20032;-64
2022/08/01 07:59:42;;;;;;;2.08;1.20;;;;;;;21.91;94.32;101714.94;5061412;28;20468;-65
2022/08/01 08:02:08;;;;;;;1.95;1.52;;;;;;;21.78;95.64;101712.28;5049109;28;20025;-65
2022/08/01 08:04:33;;;;;;;1.60;1.50;;;;;;;21.86;95.96;101714.06;5050901;28;20025;-65
2022/08/01 08:06:58;;;;;;;1.20;1.10;;;;;;;22.11;96.77;101706.09;5056024;28;20106;-65
2022/08/01 08:09:23;;;;;;;1.30;1.15;;;;;;;22.39;93.84;101703.38;5052090;28;20024;-64
2022/08/01 08:11:49;;;;;;;3.08;1.35;;;;;;;22.67;91.97;101706.78;5047217;28;20029;-65
2022/08/01 08:14:16;;;;;;;3.22;1.40;;;;;;;22.93;90.97;101707.53;5047537;28;20117;-65
2022/08/01 08:16:42;;;;;;;3.35;1.30;;;;;;;23.16;86.29;101709.13;5049541;28;20021;-65
2022/08/01 08:19:07;;;;;;;2.22;1.35;;;;;;;23.30;88.56;101710.78;5050462;28;20028;-65
2022/08/01 08:21:32;;;;;;;1.60;1.45;;;;;;;23.43;86.98;101712.50;5047335;28;20017;-65
2022/08/01 08:26:41;;;;;;;1.67;1.40;;;;;;;23.48;85.68;101715.97;5048276;28;20119;-65
2022/08/01 08:29:07;;;;;;;1.20;1.10;;;;;;;23.56;82.48;101712.38;5045884;28;20119;-65
2022/08/01 08:31:32;;;;;;;1.48;1.38;;;;;;;23.45;80.05;101721.28;5047619;28;20025;-66
2022/08/01 08:33:58;;;;;;;1.25;1.02;;;;;;;23.25;80.70;101716.13;5047019;28;20111;-65
2022/08/01 08:36:24;;;;;;;1.23;1.08;;;;;;;23.03;80.58;101713.63;5047414;28;20524;-65
2022/08/01 08:38:49;;;;;;;1.20;1.10;;;;;;;22.88;80.94;101717.25;5048281;28;20099;-66
2022/08/01 08:41:15;;;;;;;1.40;0.95;;;;;;;22.88;82.88;101715.47;5049556;28;20024;-65
2022/08/01 08:43:40;;;;;;;1.52;0.82;;;;;;;23.03;80.96;101705.69;5047732;28;20384;-65
2022/08/01 08:46:07;;;;;;;1.25;0.90;;;;;;;23.37;81.72;101715.13;5047283;28;20033;-66
2022/08/01 08:48:34;;;;;;;0.80;0.80;;;;;;;23.72;81.57;101719.28;5047127;28;20039;-65
2022/08/01 08:51:01;;;;;;;2.47;0.88;;;;;;;23.91;78.94;101719.09;5048403;28;20100;-65
2022/08/01 08:53:26;;;;;;;0.82;0.70;;;;;;;23.91;78.61;101715.59;5050027;28;20237;-64
2022/08/01 08:55:54;;;;;;;0.60;0.60;;;;;;;23.73;76.89;101715.75;5050139;28;20033;-65
2022/08/01 08:58:20;;;;;;;0.70;0.70;;;;;;;23.50;76.73;101718.59;5055317;28;20032;-65
2022/08/01 09:00:46;;;;;;;1.23;0.70;;;;;;;23.24;75.38;101717.88;5052408;28;20083;-65
2022/08/01 09:03:12;;;;;;;0.47;0.47;;;;;;;23.02;75.04;101707.47;5054532;28;20728;-65
2022/08/01 09:05:37;;;;;;;0.52;0.50;;;;;;;23.07;78.69;101723.28;5046481;28;20455;-65
2022/08/01 09:08:07;;;;;;;0.52;0.52;;;;;;;23.34;76.59;101720.44;5054511;28;21491;-65
2022/08/01 09:10:32;;;;;;;0.43;0.30;;;;;;;23.63;76.31;101720.25;5066687;28;20090;-65
2022/08/01 09:13:13;;;;;;;1.02;0.30;;;;;;;23.98;75.33;101728.72;5067467;28;20460;-65
2022/08/01 09:15:38;;;;;;;0.85;0.60;;;;;;;24.29;74.31;101724.00;5067721;28;20071;-66
2022/08/01 09:18:03;;;;;;;1.27;0.60;;;;;;;24.62;74.59;101726.25;5066082;28;20113;-65
2022/08/01 09:20:29;;;;;;;2.88;1.20;;;;;;;24.85;76.89;101725.94;5065716;28;20032;-65
2022/08/01 09:22:54;;;;;;;1.02;0.93;;;;;;;24.86;72.07;101727.69;5065461;28;20377;-65
2022/08/01 09:25:19;;;;;;;0.50;0.50;;;;;;;24.70;70.22;101730.56;5065706;28;20024;-65
2022/08/01 09:27:45;;;;;;;1.00;0.60;;;;;;;24.43;70.56;101737.97;5066236;28;20387;-65
2022/08/01 09:30:18;;;;;;;1.58;0.70;;;;;;;24.18;72.73;101738.25;5065944;28;20045;-65
2022/08/01 09:33:03;;;;;;;0.60;0.60;;;;;;;23.93;73.17;101737.59;5066278;28;20040;-66
2022/08/01 09:35:37;;;;;;;1.30;1.00;;;;;;;23.74;73.72;101729.84;5067547;28;20524;-65
2022/08/01 09:38:22;;;;;;;1.77;1.13;;;;;;;23.60;76.31;101741.41;5067677;28;20024;-65
2022/08/01 09:40:52;;;;;;;1.75;1.10;;;;;;;23.69;78.42;101735.16;5066751;28;20024;-65
2022/08/01 09:43:19;;;;;;;1.70;0.85;;;;;;;23.79;77.21;101735.09;5067007;28;20032;-65
2022/08/01 09:45:45;;;;;;;0.93;0.93;;;;;;;23.96;76.22;101737.59;5067656;28;20463;-66
2022/08/01 09:48:15;;;;;;;1.42;1.10;;;;;;;24.22;75.66;101734.69;5066937;28;20036;-65
2022/08/01 09:50:49;;;;;;;1.17;0.80;;;;;;;24.50;74.15;101740.53;5067236;28;20075;-65
2022/08/01 09:53:15;;;;;;;1.23;1.00;;;;;;;24.62;73.46;101732.44;5066381;28;20796;-65
2022/08/01 09:55:41;;;;;;;1.00;1.00;;;;;;;24.90;76.17;101736.47;5067476;28;20020;-65
2022/08/01 09:58:08;;;;;;;1.63;1.00;;;;;;;25.00;71.20;101737.25;5067031;28;20039;-65
2022/08/01 10:00:34;;;;;;;1.45;1.35;;;;;;;24.88;72.16;101749.75;5067280;28;20626;-65
2022/08/01 10:03:18;;;;;;;2.03;1.23;;;;;;;24.72;72.00;101745.56;5066311;28;20016;-65
2022/08/01 10:05:44;;;;;;;1.63;1.50;;;;;;;24.53;73.03;101744.03;5054738;28;20029;-65
2022/08/01 10:08:10;;;;;;;1.30;1.20;;;;;;;24.35;74.63;101750.44;5065300;28;20025;-65
2022/08/01 10:10:35;;;;;;;1.30;1.20;;;;;;;24.37;77.72;101743.34;5067373;28;20373;-65
2022/08/01 10:13:01;;;;;;;1.98;1.73;;;;;;;24.62;74.35;101744.81;5066382;28;20028;-65
2022/08/01 10:15:27;;;;;;;2.30;2.10;;;;;;;24.91;73.84;101744.41;5067272;28;20127;-65
2022/08/01 10:17:54;;;;;;;2.75;2.10;;;;;;;24.89;72.56;101748.88;5071053;28;20519;-65
2022/08/01 10:20:22;;;;;;;3.22;2.70;;;;;;;24.83;71.59;101748.94;5071093;28;20418;-65
2022/08/01 10:22:50;;;;;;;2.40;2.20;;;;;;;24.77;73.84;101749.03;5070613;28;20081;-65
2022/08/01 10:25:17;;;;;;;1.92;1.83;;;;;;;24.72;72.59;101751.72;5070121;28;20017;-65
2022/08/01 10:27:47;;;;;;;1.75;1.65;;;;;;;24.64;72.25;101746.56;5070771;28;20036;-65
2022/08/01 10:30:12;;;;;;;2.75;1.90;;;;;;;24.78;76.08;101753.41;5070273;28;20044;-65
2022/08/01 10:32:39;;;;;;;1.80;1.70;;;;;;;24.99;73.92;101754.06;5070676;28;20067;-65
2022/08/01 10:35:06;;;;;;;1.70;1.60;;;;;;;25.22;70.59;101759.00;5069596;28;20502;-66
2022/08/01 10:37:33;;;;;;;2.17;1.27;;;;;;;25.48;69.39;101746.22;5070632;28;20028;-66
2022/08/01 10:40:00;;;;;;;1.42;1.00;;;;;;;25.63;67.52;101748.66;5070788;28;20031;-65
2022/08/01 10:42:25;;;;;;;1.27;1.20;;;;;;;25.57;64.45;101754.03;5070729;28;20113;-65
2022/08/01 10:44:51;;;;;;;2.15;1.67;;;;;;;25.34;65.86;101750.00;5069870;28;20109;-65
2022/08/01 10:47:37;;;;;;;1.38;1.27;;;;;;;24.95;68.65;101755.88;5070485;28;20039;-65
2022/08/01 10:50:13;;;;;;;1.50;1.30;;;;;;;24.66;71.82;101755.31;5070718;28;20538;-65
2022/08/01 10:52:38;;;;;;;2.17;1.40;;;;;;;24.34;73.55;101757.47;5070350;28;20040;-65
2022/08/01 10:55:06;;;;;;;1.45;1.33;;;;;;;24.22;76.39;101753.22;5069908;28;20036;-65
2022/08/01 10:57:44;;;;;;;1.60;1.00;;;;;;;24.41;78.98;101754.78;5069617;28;20396;-65
2022/08/01 11:00:18;;;;;;;1.17;0.90;;;;;;;24.63;76.84;101754.53;5069756;28;20028;-65
2022/08/01 11:02:57;;;;;;;1.25;0.82;;;;;;;24.91;77.27;101762.97;5070026;28;20055;-66
2022/08/01 11:05:23;;;;;;;1.75;0.90;;;;;;;25.10;75.63;101768.03;5060188;28;20024;-65
2022/08/01 11:07:53;;;;;;;1.67;0.80;;;;;;;25.22;75.35;101768.75;5065369;28;20025;-65
2022/08/01 11:10:37;;;;;;;2.83;1.27;;;;;;;25.32;75.02;101777.44;5070009;28;20025;-65
2022/08/01 11:13:07;;;;;;;1.08;0.95;;;;;;;25.40;73.02;101771.09;5069635;28;20036;-65
2022/08/01 11:15:32;;;;;;;1.23;0.82;;;;;;;25.39;72.46;101782.63;5069277;28;20028;-65
2022/08/01 11:17:59;;;;;;;1.77;1.02;;;;;;;25.44;72.16;101779.03;5069416;28;20085;-65
2022/08/01 11:20:30;;;;;;;1.42;1.00;;;;;;;25.48;70.67;101781.59;5070115;28;20027;-65